Time;durP1;ratioP1;P1;durP2;ratioP2;P2;SDS_P1;SDS_P2;PMS_P1;PMS_P2;Temp;Humidity;BMP_temperature;BMP_pressure;BME280_temperature;BME280_humidity;BME280_pressure;Samples;Min_cycle;Max_cycle;Signal;HPM_P1;HPM_P2
2021/08/05 00:02:11;;;;;;;1.95;1.42;;;14.30;99.90;;;;;;5099300;28;20044;-83
2021/08/05 00:04:38;;;;;;;1.80;1.70;;;14.30;99.90;;;;;;5072974;28;20058;-84
2021/08/05 00:07:04;;;;;;;2.95;2.25;;;14.20;99.90;;;;;;5104212;28;20111;-83
2021/08/05 00:09:30;;;;;;;6.13;1.90;;;14.20;99.90;;;;;;5094350;28;20042;-82
2021/08/05 00:11:56;;;;;;;3.33;1.88;;;14.20;99.90;;;;;;5091872;28;20048;-88
2021/08/05 00:14:22;;;;;;;4.07;1.80;;;14.20;99.90;;;;;;5074749;28;20074;-83
2021/08/05 00:16:48;;;;;;;7.22;2.20;;;14.30;99.90;;;;;;5110845;28;20048;-83
2021/08/05 00:19:14;;;;;;;2.70;1.73;;;14.30;99.90;;;;;;5074841;28;20065;-83
2021/08/05 00:21:40;;;;;;;2.83;2.10;;;14.20;99.90;;;;;;5075857;28;20044;-83
2021/08/05 00:24:06;;;;;;;2.03;1.80;;;14.20;99.90;;;;;;5109909;28;20130;-87
2021/08/05 00:26:33;;;;;;;2.65;2.05;;;14.10;99.90;;;;;;5090301;28;20044;-82
2021/08/05 00:28:59;;;;;;;4.10;2.15;;;14.10;99.90;;;;;;5091960;28;20039;-83
2021/08/05 00:31:24;;;;;;;3.58;2.13;;;14.00;99.90;;;;;;5071110;28;20040;-82
2021/08/05 00:33:50;;;;;;;2.92;2.25;;;14.00;99.90;;;;;;5075430;28;20134;-83
2021/08/05 00:36:16;;;;;;;4.82;2.25;;;14.00;99.90;;;;;;5070792;28;20118;-83
2021/08/05 00:38:43;;;;;;;6.32;3.10;;;13.90;99.90;;;;;;5110295;28;20048;-83
2021/08/05 00:41:09;;;;;;;2.67;2.47;;;13.90;99.90;;;;;;5100757;28;20047;-83
2021/08/05 00:43:35;;;;;;;3.42;2.22;;;13.90;99.90;;;;;;5088390;28;20126;-83
2021/08/05 00:46:02;;;;;;;2.97;2.10;;;13.90;99.90;;;;;;5109358;28;20062;-82
2021/08/05 00:48:28;;;;;;;2.95;1.95;;;13.90;99.90;;;;;;5104780;28;20482;-83
2021/08/05 00:50:55;;;;;;;2.95;2.17;;;13.80;99.90;;;;;;5053029;28;20040;-83
2021/08/05 00:53:21;;;;;;;3.75;2.00;;;13.80;99.90;;;;;;5070976;28;20073;-84
2021/08/05 00:55:47;;;;;;;3.58;2.15;;;13.80;99.90;;;;;;5082216;28;20475;-83
2021/08/05 00:58:13;;;;;;;5.72;2.47;;;13.80;99.90;;;;;;5089144;28;20058;-82
2021/08/05 01:00:42;;;;;;;5.47;3.45;;;13.80;99.90;;;;;;5089625;28;20134;-82
2021/08/05 01:03:33;;;;;;;2.63;2.42;;;13.70;99.90;;;;;;5090292;28;20491;-82
2021/08/05 01:06:26;;;;;;;3.17;2.88;;;13.70;99.90;;;;;;5090906;28;20118;-87
2021/08/05 01:09:02;;;;;;;3.40;3.20;;;13.70;99.90;;;;;;5085889;28;20115;-82
2021/08/05 01:11:35;;;;;;;2.80;2.35;;;13.70;99.90;;;;;;5075071;28;20071;-83
2021/08/05 01:14:04;;;;;;;3.25;2.80;;;13.70;99.90;;;;;;5095724;28;20517;-86
2021/08/05 01:16:32;;;;;;;3.30;3.00;;;13.70;99.90;;;;;;5109658;28;20043;-83
2021/08/05 01:19:08;;;;;;;3.92;3.30;;;13.60;99.90;;;;;;5101373;28;20059;-86
2021/08/05 01:22:06;;;;;;;3.17;2.88;;;13.60;99.90;;;;;;5084137;28;20043;-84
2021/08/05 01:24:36;;;;;;;3.90;3.50;;;13.50;99.90;;;;;;5087779;28;20048;-83
2021/08/05 01:27:03;;;;;;;3.60;3.30;;;13.50;99.90;;;;;;5091367;28;20059;-87
2021/08/05 01:29:33;;;;;;;8.35;4.18;;;13.50;99.90;;;;;;5096945;28;20404;-82
2021/08/05 01:32:02;;;;;;;9.45;3.58;;;13.40;99.90;;;;;;5098495;28;20051;-86
2021/08/05 01:34:29;;;;;;;7.80;3.22;;;13.50;99.90;;;;;;5109357;28;20036;-82
2021/08/05 01:36:55;;;;;;;6.93;3.97;;;13.50;99.90;;;;;;5081778;28;20051;-83
2021/08/05 01:39:21;;;;;;;5.35;3.80;;;13.50;99.90;;;;;;5076586;28;20055;-82
2021/08/05 01:41:49;;;;;;;4.53;4.05;;;13.50;99.90;;;;;;5087321;28;20044;-82
2021/08/05 01:44:16;;;;;;;6.22;3.65;;;13.40;99.90;;;;;;5078463;28;20167;-83
2021/08/05 01:46:44;;;;;;;5.60;3.92;;;13.40;99.90;;;;;;5093106;28;20148;-85
2021/08/05 01:49:11;;;;;;;5.95;4.32;;;13.40;99.90;;;;;;5108468;28;20056;-84
2021/08/05 01:51:39;;;;;;;7.43;4.25;;;13.40;99.90;;;;;;5091271;28;20166;-82
2021/08/05 01:54:05;;;;;;;5.93;4.78;;;13.30;99.90;;;;;;5092128;28;20040;-87
2021/08/05 01:56:31;;;;;;;8.88;5.25;;;13.30;99.90;;;;;;5082322;28;20080;-82
2021/08/05 01:58:57;;;;;;;7.93;4.72;;;13.30;99.90;;;;;;5088024;28;20491;-83
2021/08/05 02:01:23;;;;;;;6.50;4.10;;;13.20;99.90;;;;;;5100047;28;20058;-82
2021/08/05 02:03:57;;;;;;;6.53;4.38;;;13.20;99.90;;;;;;5112482;28;20035;-83
2021/08/05 02:06:25;;;;;;;5.47;4.75;;;13.20;99.90;;;;;;5100029;28;20067;-82
2021/08/05 02:09:08;;;;;;;4.22;3.92;;;13.10;99.90;;;;;;5093269;28;20043;-82
2021/08/05 02:11:36;;;;;;;5.70;4.03;;;13.10;99.90;;;;;;5113434;28;20048;-83
2021/08/05 02:14:04;;;;;;;5.97;3.60;;;13.00;99.90;;;;;;5062262;28;20070;-85
2021/08/05 02:16:31;;;;;;;4.53;3.67;;;12.90;99.90;;;;;;5095814;28;20098;-83
2021/08/05 02:18:58;;;;;;;4.85;3.80;;;12.90;99.90;;;;;;5106410;28;20040;-82
2021/08/05 02:21:26;;;;;;;4.65;4.13;;;12.80;99.90;;;;;;5095825;28;20043;-82
2021/08/05 02:23:58;;;;;;;6.45;3.97;;;12.80;99.90;;;;;;5112332;28;20044;-82
2021/08/05 02:26:26;;;;;;;6.38;5.22;;;12.70;99.90;;;;;;5087179;28;20120;-82
2021/08/05 02:28:52;;;;;;;7.47;4.88;;;12.70;99.90;;;;;;5094527;28;20551;-83
2021/08/05 02:31:19;;;;;;;5.65;5.03;;;12.70;99.90;;;;;;5110142;28;20042;-84
2021/08/05 02:33:45;;;;;;;11.20;6.45;;;12.70;99.90;;;;;;5094027;28;20051;-82
2021/08/05 02:36:11;;;;;;;7.57;5.10;;;12.70;99.90;;;;;;5083466;28;20555;-82
2021/08/05 02:38:38;;;;;;;7.32;6.10;;;12.60;99.90;;;;;;5082100;28;20107;-82
2021/08/05 02:41:06;;;;;;;11.85;7.00;;;12.60;99.90;;;;;;5093871;28;20043;-82
2021/08/05 02:43:34;;;;;;;7.35;6.05;;;12.60;99.90;;;;;;5112318;28;20047;-82
2021/08/05 02:46:00;;;;;;;9.13;6.43;;;12.50;99.90;;;;;;5087696;28;20514;-82
2021/08/05 02:48:28;;;;;;;9.70;7.13;;;12.50;99.90;;;;;;5091648;28;20059;-83
2021/08/05 02:50:55;;;;;;;10.70;7.68;;;12.50;99.90;;;;;;5093669;28;20092;-82
2021/08/05 02:53:22;;;;;;;11.73;7.95;;;12.50;99.90;;;;;;5110721;28;20056;-82
2021/08/05 02:55:48;;;;;;;9.45;7.40;;;12.50;99.90;;;;;;5084049;28;20042;-82
2021/08/05 02:58:15;;;;;;;11.25;9.23;;;12.50;99.90;;;;;;5105971;28;20051;-84
2021/08/05 03:00:43;;;;;;;9.90;8.43;;;12.50;99.90;;;;;;5112153;28;20294;-82
2021/08/05 03:03:08;;;;;;;14.18;9.82;;;12.40;99.90;;;;;;5105500;28;20040;-86
2021/08/05 03:05:35;;;;;;;14.27;10.43;;;12.40;99.90;;;;;;5108871;28;20066;-82
2021/08/05 03:08:01;;;;;;;14.88;10.75;;;12.40;99.90;;;;;;5085230;28;20529;-82
2021/08/05 03:10:27;;;;;;;12.73;9.48;;;12.50;99.90;;;;;;5110822;28;20043;-82
2021/08/05 03:12:53;;;;;;;11.45;8.75;;;12.50;99.90;;;;;;5105923;28;20040;-82
2021/08/05 03:15:18;;;;;;;12.60;10.10;;;12.50;99.90;;;;;;5071925;28;20054;-81
2021/08/05 03:17:44;;;;;;;11.65;10.18;;;12.50;99.90;;;;;;5109255;28;20051;-81
2021/08/05 03:20:15;;;;;;;15.55;10.95;;;12.50;99.90;;;;;;5100900;28;20040;-84
2021/08/05 03:22:43;;;;;;;17.00;11.43;;;12.50;99.90;;;;;;5090744;28;20067;-83
2021/08/05 03:25:09;;;;;;;16.83;12.57;;;12.50;99.90;;;;;;5065509;28;20154;-82
2021/08/05 03:27:34;;;;;;;15.88;11.57;;;12.50;99.90;;;;;;5088439;28;20146;-82
2021/08/05 03:30:00;;;;;;;20.25;11.45;;;12.50;99.90;;;;;;5111501;28;20123;-81
2021/08/05 03:32:28;;;;;;;17.88;12.20;;;12.50;99.90;;;;;;5061368;28;20048;-82
2021/08/05 03:34:54;;;;;;;15.90;11.05;;;12.40;99.90;;;;;;5110188;28;20046;-83
2021/08/05 03:37:20;;;;;;;18.13;12.02;;;12.50;99.90;;;;;;5104686;28;20036;-82
2021/08/05 03:39:45;;;;;;;19.10;12.07;;;12.40;99.90;;;;;;5089686;28;20046;-81
2021/08/05 03:42:11;;;;;;;16.38;11.60;;;12.40;99.90;;;;;;5110940;28;20079;-82
2021/08/05 03:44:37;;;;;;;15.73;11.50;;;12.40;99.90;;;;;;5091884;28;20048;-81
2021/08/05 03:47:03;;;;;;;18.13;11.65;;;12.40;99.90;;;;;;5069088;28;20070;-81
2021/08/05 03:49:31;;;;;;;21.00;12.80;;;12.40;99.90;;;;;;5110315;28;20112;-82
2021/08/05 03:51:56;;;;;;;18.42;12.32;;;12.40;99.90;;;;;;5110800;28;20039;-81
2021/08/05 03:54:22;;;;;;;16.13;11.88;;;12.40;99.90;;;;;;5092152;28;20127;-81
2021/08/05 03:56:48;;;;;;;15.40;11.48;;;12.40;99.90;;;;;;5077816;28;20035;-81
2021/08/05 03:59:14;;;;;;;17.17;11.95;;;12.40;99.90;;;;;;5092284;28;20063;-86
2021/08/05 04:01:40;;;;;;;23.98;15.75;;;12.40;99.90;;;;;;5081584;28;20097;-81
2021/08/05 04:04:06;;;;;;;24.58;16.45;;;12.40;99.90;;;;;;5075449;28;20101;-84
2021/08/05 04:06:32;;;;;;;22.90;15.75;;;12.50;99.90;;;;;;5065757;28;20476;-81
2021/08/05 04:08:58;;;;;;;22.30;15.13;;;12.50;99.90;;;;;;5091836;28;20043;-82
2021/08/05 04:11:24;;;;;;;20.60;14.13;;;12.40;99.90;;;;;;5074747;28;20116;-82
2021/08/05 04:13:50;;;;;;;19.95;13.68;;;12.40;99.90;;;;;;5110574;28;20044;-82
2021/08/05 04:16:16;;;;;;;18.95;12.20;;;12.40;99.90;;;;;;5074003;28;20078;-87
2021/08/05 04:18:42;;;;;;;22.00;14.55;;;12.40;99.90;;;;;;5110172;28;20040;-82
2021/08/05 04:21:08;;;;;;;22.77;14.68;;;12.40;99.90;;;;;;5075167;28;20039;-82
2021/08/05 04:23:35;;;;;;;18.65;14.10;;;12.40;99.90;;;;;;5058399;28;20458;-85
2021/08/05 04:26:01;;;;;;;23.30;15.13;;;12.40;99.90;;;;;;5089599;28;20040;-82
2021/08/05 04:28:31;;;;;;;19.25;12.70;;;12.40;99.90;;;;;;5091991;28;20043;-82
2021/08/05 04:30:57;;;;;;;15.68;12.88;;;12.40;99.90;;;;;;5108635;28;20069;-82
2021/08/05 04:33:22;;;;;;;21.77;15.10;;;12.40;99.90;;;;;;5068080;28;20066;-82
2021/08/05 04:35:48;;;;;;;19.95;15.20;;;12.40;99.90;;;;;;5100300;28;20088;-82
2021/08/05 04:38:14;;;;;;;26.73;17.70;;;12.40;99.90;;;;;;5108520;28;20479;-85
2021/08/05 04:40:42;;;;;;;23.25;16.70;;;12.50;99.90;;;;;;5091208;28;20036;-84
2021/08/05 04:43:08;;;;;;;29.38;17.38;;;12.50;99.90;;;;;;5109983;28;20522;-82
2021/08/05 04:45:34;;;;;;;29.10;17.65;;;12.50;99.90;;;;;;5091294;28;20115;-82
2021/08/05 04:48:04;;;;;;;22.08;14.65;;;12.50;99.90;;;;;;5085335;28;20126;-82
2021/08/05 04:50:34;;;;;;;;;;;12.50;99.90;;;;;;5079160;28;20027;-82
2021/08/05 04:53:00;;;;;;;23.92;15.75;;;12.50;99.90;;;;;;5109686;28;19920;-84
2021/08/05 04:55:34;;;;;;;30.73;18.10;;;12.50;99.90;;;;;;5092212;28;20031;-82
2021/08/05 04:58:03;;;;;;;27.33;18.17;;;12.50;99.90;;;;;;5054000;28;20044;-82
2021/08/05 05:00:32;;;;;;;32.90;19.88;;;12.60;99.90;;;;;;5105864;28;20092;-82
2021/08/05 05:02:58;;;;;;;31.98;18.63;;;12.60;99.90;;;;;;5072695;28;20052;-85
2021/08/05 05:05:25;;;;;;;35.70;22.27;;;12.70;99.90;;;;;;5107219;28;20433;-87
2021/08/05 05:07:52;;;;;;;33.97;20.70;;;12.80;99.90;;;;;;5091821;28;20109;-82
2021/08/05 05:10:19;;;;;;;36.65;23.15;;;12.90;99.90;;;;;;5103071;28;20566;-85
2021/08/05 05:12:45;;;;;;;34.55;22.33;;;13.00;99.90;;;;;;5107893;28;20031;-86
2021/08/05 05:15:13;;;;;;;34.22;21.92;;;13.00;99.90;;;;;;5109782;28;20225;-82
2021/08/05 05:17:41;;;;;;;33.42;21.17;;;13.10;99.90;;;;;;5108606;28;20101;-82
2021/08/05 05:20:08;;;;;;;34.80;21.33;;;13.20;99.90;;;;;;5087020;28;20065;-83
2021/08/05 05:22:35;;;;;;;35.22;21.60;;;13.30;99.90;;;;;;5064749;28;20040;-82
2021/08/05 05:25:02;;;;;;;34.70;21.80;;;13.30;99.90;;;;;;5085958;28;20065;-83
2021/08/05 05:27:30;;;;;;;36.15;22.50;;;13.30;99.90;;;;;;5088708;28;20058;-84
2021/08/05 05:29:59;;;;;;;32.47;21.17;;;13.40;99.90;;;;;;5074304;28;20040;-83
2021/08/05 05:32:26;;;;;;;37.53;20.70;;;13.50;99.90;;;;;;5093557;28;20051;-88
2021/08/05 05:34:53;;;;;;;35.17;21.08;;;13.60;99.90;;;;;;5093848;28;20037;-83
2021/08/05 05:37:21;;;;;;;27.77;18.33;;;13.60;99.90;;;;;;5093976;28;20085;-83
2021/08/05 05:39:51;;;;;;;34.75;21.50;;;13.70;99.90;;;;;;5074406;28;20060;-83
2021/08/05 05:42:17;;;;;;;35.55;20.90;;;13.80;99.90;;;;;;5075094;28;20032;-82
2021/08/05 05:44:43;;;;;;;34.30;20.00;;;13.80;99.90;;;;;;5092583;28;20047;-83
2021/08/05 05:47:10;;;;;;;31.92;20.40;;;13.80;99.90;;;;;;5092800;28;20114;-82
2021/08/05 05:49:35;;;;;;;30.92;18.63;;;14.00;99.90;;;;;;5074496;28;20453;-84
2021/08/05 05:52:01;;;;;;;26.17;16.98;;;14.00;99.90;;;;;;5092207;28;20053;-82
2021/08/05 05:54:28;;;;;;;19.63;14.82;;;14.00;99.90;;;;;;5074297;28;20093;-88
2021/08/05 05:56:54;;;;;;;22.88;14.80;;;14.10;99.90;;;;;;5097196;28;20474;-83
2021/08/05 05:59:20;;;;;;;20.38;15.80;;;14.20;99.90;;;;;;5060529;28;20043;-82
2021/08/05 06:01:45;;;;;;;18.50;13.50;;;14.20;99.90;;;;;;5057104;28;20454;-81
2021/08/05 06:04:11;;;;;;;20.92;14.20;;;14.30;99.90;;;;;;5092421;28;20061;-81
2021/08/05 06:06:38;;;;;;;19.60;14.23;;;14.30;99.90;;;;;;5057314;28;20046;-84
2021/08/05 06:09:04;;;;;;;22.73;14.68;;;14.30;99.90;;;;;;5076683;28;20429;-82
2021/08/05 06:11:31;;;;;;;18.70;13.07;;;14.30;99.90;;;;;;5093951;28;20458;-88
2021/08/05 06:13:57;;;;;;;19.13;15.05;;;14.30;99.90;;;;;;5112388;28;20059;-82
2021/08/05 06:16:24;;;;;;;21.05;15.52;;;14.40;99.90;;;;;;5077797;28;20054;-82
2021/08/05 06:18:50;;;;;;;24.15;16.67;;;14.40;99.90;;;;;;5088741;28;20036;-81
2021/08/05 06:21:16;;;;;;;20.77;15.55;;;14.40;99.90;;;;;;5093157;28;20127;-82
2021/08/05 06:23:42;;;;;;;19.38;14.73;;;14.40;99.90;;;;;;5082670;28;20055;-81
2021/08/05 06:26:08;;;;;;;22.67;15.10;;;14.40;99.90;;;;;;5091338;28;20063;-81
2021/08/05 06:28:34;;;;;;;23.35;15.93;;;14.50;99.90;;;;;;5090966;28;20475;-82
2021/08/05 06:31:01;;;;;;;20.02;15.07;;;14.50;99.90;;;;;;5087791;28;20050;-82
2021/08/05 06:33:26;;;;;;;23.95;15.85;;;14.60;99.90;;;;;;5094436;28;20392;-83
2021/08/05 06:35:53;;;;;;;19.02;13.90;;;14.60;99.90;;;;;;5093836;28;20115;-83
2021/08/05 06:38:18;;;;;;;18.02;12.70;;;14.70;99.90;;;;;;5094218;28;20067;-85
2021/08/05 06:40:45;;;;;;;17.15;13.07;;;14.80;99.90;;;;;;5083413;28;20039;-82
2021/08/05 06:43:11;;;;;;;12.95;10.88;;;14.90;99.90;;;;;;5108696;28;20464;-83
2021/08/05 06:45:38;;;;;;;18.50;9.48;;;15.00;99.90;;;;;;5096084;28;20071;-82
2021/08/05 06:48:04;;;;;;;14.70;11.48;;;15.10;99.90;;;;;;5071979;28;20047;-82
2021/08/05 06:50:30;;;;;;;16.25;12.18;;;15.20;99.90;;;;;;5083182;28;20048;-82
2021/08/05 06:52:56;;;;;;;13.52;9.82;;;15.30;99.90;;;;;;5101878;28;20771;-82
2021/08/05 06:55:21;;;;;;;16.67;10.75;;;15.40;99.90;;;;;;5092737;28;20050;-82
2021/08/05 06:57:47;;;;;;;16.13;11.07;;;15.50;99.90;;;;;;5111423;28;20047;-82
2021/08/05 07:00:14;;;;;;;13.40;10.95;;;15.60;99.90;;;;;;5048069;28;20493;-83
2021/08/05 07:02:40;;;;;;;14.07;10.18;;;15.70;99.90;;;;;;5090644;28;20048;-82
2021/08/05 07:05:09;;;;;;;13.07;8.95;;;15.70;99.90;;;;;;5092938;28;20376;-82
2021/08/05 07:07:35;;;;;;;10.40;9.00;;;15.80;99.90;;;;;;5083426;28;20385;-86
2021/08/05 07:10:02;;;;;;;11.65;8.93;;;15.90;99.90;;;;;;5093544;28;20589;-81
2021/08/05 07:12:29;;;;;;;10.68;8.73;;;15.90;99.90;;;;;;5072317;28;20032;-82
2021/08/05 07:14:55;;;;;;;7.10;6.25;;;16.10;99.90;;;;;;5090005;28;20490;-82
2021/08/05 07:17:21;;;;;;;10.13;6.00;;;16.10;99.90;;;;;;5072450;28;20070;-81
2021/08/05 07:19:47;;;;;;;8.77;6.78;;;16.20;99.90;;;;;;5071381;28;20051;-82
2021/08/05 07:22:13;;;;;;;9.88;7.60;;;16.40;99.90;;;;;;5090472;28;20043;-81
2021/08/05 07:24:38;;;;;;;10.90;9.00;;;16.40;99.90;;;;;;5055587;28;20113;-87
2021/08/05 07:27:05;;;;;;;12.07;8.02;;;16.40;99.90;;;;;;5072996;28;20067;-82
2021/08/05 07:29:32;;;;;;;13.90;7.97;;;16.50;99.90;;;;;;5072612;28;20320;-83
2021/08/05 07:32:01;;;;;;;8.88;7.70;;;16.50;99.90;;;;;;5065512;28;20036;-83
2021/08/05 07:34:27;;;;;;;10.38;8.50;;;16.60;99.90;;;;;;5056679;28;20040;-83
2021/08/05 07:36:53;;;;;;;10.32;7.65;;;16.60;99.90;;;;;;5071741;28;20403;-82
2021/08/05 07:39:19;;;;;;;20.58;8.70;;;16.70;99.90;;;;;;5072752;28;20047;-83
2021/08/05 07:41:45;;;;;;;11.15;8.30;;;16.70;99.90;;;;;;5071962;28;20044;-82
2021/08/05 07:44:11;;;;;;;12.80;8.52;;;16.80;99.90;;;;;;5072290;28;20047;-83
2021/08/05 07:46:37;;;;;;;9.82;7.97;;;16.80;99.90;;;;;;5090232;28;20040;-87
2021/08/05 07:49:03;;;;;;;13.43;8.15;;;16.90;99.90;;;;;;5054347;28;20052;-83
2021/08/05 07:51:29;;;;;;;9.43;7.35;;;17.00;99.90;;;;;;5090197;28;20043;-82
2021/08/05 07:53:55;;;;;;;10.25;7.65;;;17.00;99.90;;;;;;5089256;28;20480;-82
2021/08/05 07:56:21;;;;;;;8.75;7.85;;;17.10;99.90;;;;;;5090204;28;20100;-83
2021/08/05 07:58:48;;;;;;;10.38;7.57;;;17.30;99.90;;;;;;5088755;28;20506;-82
2021/08/05 08:01:14;;;;;;;10.27;6.97;;;17.40;99.90;;;;;;5067650;28;20100;-83
2021/08/05 08:03:40;;;;;;;10.02;6.75;;;17.50;99.90;;;;;;5089861;28;20056;-86
2021/08/05 08:06:06;;;;;;;8.43;7.60;;;17.50;99.90;;;;;;5089553;28;20067;-82
2021/08/05 08:08:32;;;;;;;8.32;5.90;;;17.60;99.90;;;;;;5089395;28;20092;-83
2021/08/05 08:10:58;;;;;;;6.60;5.75;;;17.70;99.90;;;;;;5089536;28;20088;-82
2021/08/05 08:13:25;;;;;;;10.98;5.88;;;17.80;99.90;;;;;;5110232;28;20497;-81
2021/08/05 08:15:50;;;;;;;8.18;5.88;;;17.90;99.90;;;;;;5090995;28;20053;-83
2021/08/05 08:18:17;;;;;;;7.78;5.53;;;18.00;99.90;;;;;;5085568;28;20035;-82
2021/08/05 08:20:43;;;;;;;5.28;4.78;;;18.10;99.90;;;;;;5091599;28;20077;-87
2021/08/05 08:23:09;;;;;;;5.50;4.43;;;18.10;99.90;;;;;;5091434;28;20043;-83
2021/08/05 08:25:35;;;;;;;4.57;4.18;;;18.20;99.90;;;;;;5109982;28;20503;-82
2021/08/05 08:28:01;;;;;;;4.30;3.90;;;18.30;99.90;;;;;;5066965;28;20112;-82
2021/08/05 08:30:27;;;;;;;4.53;3.75;;;18.40;99.90;;;;;;5109660;28;20055;-84
2021/08/05 08:32:53;;;;;;;5.20;4.05;;;18.40;99.90;;;;;;5089327;28;20066;-82
2021/08/05 08:35:18;;;;;;;5.55;4.93;;;18.50;99.90;;;;;;5110044;28;20047;-82
2021/08/05 08:37:45;;;;;;;4.80;3.97;;;18.60;99.90;;;;;;5065943;28;20471;-85
2021/08/05 08:40:12;;;;;;;13.35;4.15;;;18.70;99.90;;;;;;5073738;28;20043;-84
2021/08/05 08:42:42;;;;;;;4.22;3.83;;;18.70;99.90;;;;;;5109464;28;20490;-82
2021/08/05 08:45:10;;;;;;;4.75;4.32;;;18.80;99.90;;;;;;5108234;28;20070;-82
2021/08/05 08:47:37;;;;;;;6.15;3.92;;;18.90;99.90;;;;;;5083355;28;20056;-82
2021/08/05 08:50:04;;;;;;;5.18;3.63;;;19.00;99.90;;;;;;5088437;28;20043;-82
2021/08/05 08:52:31;;;;;;;4.80;4.40;;;19.00;99.90;;;;;;5109889;28;20100;-83
2021/08/05 08:54:58;;;;;;;6.13;4.53;;;19.10;99.90;;;;;;5101158;28;20048;-83
2021/08/05 08:57:30;;;;;;;8.63;4.88;;;19.20;99.90;;;;;;5091406;28;20506;-83
2021/08/05 08:59:58;;;;;;;5.03;4.60;;;19.20;99.90;;;;;;5090351;28;20461;-83
2021/08/05 09:02:24;;;;;;;4.72;3.97;;;19.30;99.90;;;;;;5103148;28;20425;-82
2021/08/05 09:04:52;;;;;;;4.65;4.15;;;19.30;99.90;;;;;;5099943;28;20096;-84
2021/08/05 09:07:18;;;;;;;5.32;4.70;;;19.40;99.90;;;;;;5070527;28;20035;-83
2021/08/05 09:09:43;;;;;;;7.38;4.60;;;19.40;99.90;;;;;;5086114;28;20479;-84
2021/08/05 09:12:15;;;;;;;10.43;5.00;;;19.40;99.90;;;;;;5087248;28;20626;-83
2021/08/05 09:14:50;;;;;;;12.75;5.35;;;19.50;99.90;;;;;;5076195;28;20491;-83
2021/08/05 09:17:18;;;;;;;7.10;4.80;;;19.60;99.90;;;;;;5071449;28;20114;-83
2021/08/05 09:19:43;;;;;;;4.78;4.35;;;19.60;99.90;;;;;;5070647;28;20143;-83
2021/08/05 09:22:09;;;;;;;5.10;4.68;;;19.70;99.90;;;;;;5085066;28;20633;-83
2021/08/05 09:24:35;;;;;;;5.55;4.68;;;19.70;99.90;;;;;;5070037;28;20059;-84
2021/08/05 09:27:03;;;;;;;5.57;4.63;;;19.80;99.90;;;;;;5070096;28;20054;-83
2021/08/05 09:29:30;;;;;;;4.85;4.35;;;19.90;99.90;;;;;;5070253;28;20043;-85
2021/08/05 09:31:59;;;;;;;4.90;4.40;;;19.90;99.90;;;;;;5087542;28;20040;-83
2021/08/05 09:34:31;;;;;;;;;;;20.00;99.90;;;;;;5070569;28;20063;-83
2021/08/05 09:37:05;;;;;;;5.35;4.63;;;20.00;99.90;;;;;;5087694;28;19920;-83
2021/08/05 09:39:40;;;;;;;4.25;3.95;;;20.10;99.90;;;;;;5088500;28;20044;-87
2021/08/05 09:42:11;;;;;;;4.40;3.40;;;20.10;99.90;;;;;;5089092;28;20525;-85
2021/08/05 09:44:37;;;;;;;5.18;3.70;;;20.30;99.90;;;;;;5071562;28;20051;-86
2021/08/05 09:47:03;;;;;;;5.03;4.57;;;20.40;99.90;;;;;;5070954;28;20048;-88
2021/08/05 09:49:29;;;;;;;4.60;4.18;;;20.50;99.90;;;;;;5072502;28;20480;-88
2021/08/05 09:51:59;;;;;;;7.25;4.07;;;20.80;99.90;;;;;;5063388;28;20071;-91
2021/08/05 09:54:38;;;;;;;;;;;20.90;99.90;;;;;;5077618;28;20050;-90
2021/08/05 09:57:06;;;;;;;3.67;3.42;;;21.10;99.90;;;;;;5071114;28;19926;-90
2021/08/05 09:59:32;;;;;;;5.45;3.95;;;21.40;99.90;;;;;;5040968;28;20060;-89
2021/08/05 10:01:59;;;;;;;4.68;4.28;;;21.50;99.90;;;;;;5061317;28;20054;-91
2021/08/05 10:04:28;;;;;;;5.45;4.53;;;21.70;99.90;;;;;;5064645;28;20039;-90
2021/08/05 10:06:59;;;;;;;4.30;3.90;;;21.80;99.90;;;;;;5083895;28;20048;-91
2021/08/05 10:09:26;;;;;;;4.20;3.80;;;21.90;99.90;;;;;;5097056;28;20031;-89
2021/08/05 10:11:52;;;;;;;3.90;3.50;;;22.00;99.90;;;;;;5083177;28;20044;-89
2021/08/05 10:14:22;;;;;;;4.07;3.75;;;22.10;99.90;;;;;;5088269;28;20818;-91
2021/08/05 10:16:50;;;;;;;4.43;4.03;;;22.20;99.90;;;;;;5087426;28;20424;-91
2021/08/05 10:19:19;;;;;;;4.80;3.90;;;22.30;99.90;;;;;;5062517;28;20586;-92
2021/08/05 10:21:49;;;;;;;4.47;3.90;;;22.50;99.90;;;;;;5089416;28;20040;-89
2021/08/05 10:24:16;;;;;;;3.90;3.50;;;22.60;99.90;;;;;;5096405;28;20039;-89
2021/08/05 10:26:44;;;;;;;7.65;4.32;;;22.70;99.90;;;;;;5076989;28;20117;-90
2021/08/05 10:29:14;;;;;;;6.20;4.18;;;22.60;99.90;;;;;;5059125;28;20036;-88
2021/08/05 10:31:41;;;;;;;4.72;3.85;;;22.50;99.90;;;;;;5089321;28;20495;-89
2021/08/05 10:34:09;;;;;;;4.45;3.65;;;22.50;99.90;;;;;;5078942;28;20146;-90
2021/08/05 10:36:36;;;;;;;4.50;4.20;;;22.50;99.90;;;;;;5094459;28;20054;-90
2021/08/05 10:39:03;;;;;;;3.35;3.05;;;22.40;99.90;;;;;;5073709;28;20098;-89
2021/08/05 10:41:30;;;;;;;4.07;3.78;;;22.40;99.90;;;;;;5077753;28;20048;-88
2021/08/05 10:44:00;;;;;;;5.07;4.57;;;22.30;99.90;;;;;;5067356;28;20036;-88
2021/08/05 10:46:33;;;;;;;3.67;3.38;;;22.30;99.90;;;;;;5091957;28;20047;-89
2021/08/05 10:49:06;;;;;;;6.38;3.67;;;22.20;99.90;;;;;;5092652;28;20048;-90
2021/08/05 10:51:38;;;;;;;3.47;3.13;;;22.10;99.90;;;;;;5059668;28;20056;-88
2021/08/05 10:54:04;;;;;;;3.67;3.25;;;22.30;99.90;;;;;;5052782;28;20048;-90
2021/08/05 10:56:31;;;;;;;4.03;3.63;;;22.30;99.90;;;;;;5048150;28;20388;-89
2021/08/05 10:59:11;;;;;;;3.88;3.42;;;22.30;99.90;;;;;;5078721;28;20074;-88
2021/08/05 11:01:54;;;;;;;5.35;2.70;;;22.20;99.90;;;;;;5074384;28;20043;-88
2021/08/05 11:04:36;;;;;;;2.97;2.67;;;22.00;99.90;;;;;;5057531;28;20044;-89
2021/08/05 11:07:24;;;;;;;2.20;2.00;;;21.90;99.90;;;;;;5075052;28;20082;-90
2021/08/05 11:09:51;;;;;;;2.30;2.10;;;22.00;99.90;;;;;;5076012;28;20043;-89
2021/08/05 11:12:39;;;;;;;2.17;2.08;;;22.20;99.90;;;;;;5113855;28;20077;-88
2021/08/05 11:15:31;;;;;;;6.95;2.40;;;22.40;99.90;;;;;;5085059;28;20431;-90
2021/08/05 11:20:34;;;;;;;2.92;2.50;;;22.60;99.90;;;;;;5099376;28;20365;-89
2021/08/05 11:23:00;;;;;;;2.50;2.30;;;22.80;99.90;;;;;;5074385;28;20094;-90
2021/08/05 11:25:46;;;;;;;4.45;3.17;;;23.00;99.90;;;;;;5074958;28;20039;-90
2021/08/05 11:28:25;;;;;;;3.28;2.92;;;23.10;99.90;;;;;;5086437;28;20080;-89
2021/08/05 11:31:02;;;;;;;4.45;2.10;;;23.20;99.90;;;;;;5089120;28;20483;-90
2021/08/05 11:33:37;;;;;;;5.10;2.40;;;23.30;99.90;;;;;;5078209;28;20051;-90
2021/08/05 11:36:20;;;;;;;2.03;1.92;;;23.30;99.90;;;;;;5081365;28;20043;-90
2021/08/05 11:39:25;;;;;;;2.95;2.75;;;23.30;99.90;;;;;;5078109;28;20056;-90
2021/08/05 11:42:02;;;;;;;3.92;2.30;;;23.20;99.90;;;;;;5077065;28;20058;-90
2021/08/05 11:44:41;;;;;;;7.63;2.72;;;23.30;99.90;;;;;;5062398;28;20055;-92
2021/08/05 11:47:34;;;;;;;2.85;2.65;;;23.40;99.90;;;;;;5075217;28;20046;-90
2021/08/05 11:50:03;;;;;;;3.20;2.55;;;23.60;99.90;;;;;;5074190;28;20083;-90
2021/08/05 11:52:29;;;;;;;3.28;2.40;;;23.80;99.90;;;;;;5083191;28;20050;-90
2021/08/05 11:55:06;;;;;;;2.72;2.53;;;24.00;99.90;;;;;;5107098;28;20047;-91
2021/08/05 11:57:38;;;;;;;3.38;2.70;;;24.10;99.90;;;;;;5084780;28;20047;-91
2021/08/05 12:00:26;;;;;;;2.53;2.30;;;24.20;99.90;;;;;;5091404;28;20043;-90
2021/08/05 12:03:02;;;;;;;2.78;2.55;;;24.40;99.90;;;;;;5088114;28;20047;-90
2021/08/05 12:05:37;;;;;;;2.60;2.40;;;24.50;99.90;;;;;;5079396;28;20249;-90
2021/08/05 12:08:03;;;;;;;2.95;2.70;;;24.10;99.90;;;;;;5095791;28;20058;-91
2021/08/05 12:10:31;;;;;;;2.53;2.20;;;24.00;99.90;;;;;;5039737;28;20041;-91
2021/08/05 12:13:03;;;;;;;2.20;2.10;;;24.20;99.90;;;;;;5052950;28;20086;-91
2021/08/05 12:15:33;;;;;;;3.85;2.42;;;24.30;99.90;;;;;;5107184;28;20043;-91
2021/08/05 12:18:19;;;;;;;5.45;2.67;;;24.20;99.90;;;;;;5087610;28;20040;-90
2021/08/05 12:20:52;;;;;;;5.22;2.50;;;23.90;99.90;;;;;;5076421;28;20074;-90
2021/08/05 12:23:29;;;;;;;5.70;2.05;;;24.10;99.90;;;;;;5092834;28;20061;-92
2021/08/05 12:28:27;;;;;;;2.63;2.10;;;24.60;99.90;;;;;;5081281;28;20044;-90
2021/08/05 12:30:55;;;;;;;2.55;2.10;;;24.50;99.90;;;;;;5097970;28;20040;-91
2021/08/05 12:33:30;;;;;;;3.10;2.33;;;24.30;99.90;;;;;;5062479;28;20043;-91
2021/08/05 12:36:28;;;;;;;5.07;2.10;;;24.10;99.90;;;;;;5055408;28;20055;-90
2021/08/05 12:39:04;;;;;;;2.60;2.40;;;24.50;99.90;;;;;;5081574;28;20496;-91
2021/08/05 12:41:47;;;;;;;2.63;2.13;;;24.60;99.90;;;;;;5090259;28;20411;-91
2021/08/05 12:44:22;;;;;;;4.38;2.28;;;24.20;99.90;;;;;;5077004;28;20044;-91
2021/08/05 12:46:54;;;;;;;2.97;1.92;;;23.90;99.90;;;;;;5078066;28;20044;-90
2021/08/05 12:49:27;;;;;;;2.42;1.65;;;24.00;99.90;;;;;;5081562;28;20487;-90
2021/08/05 12:52:01;;;;;;;4.07;2.22;;;24.20;99.90;;;;;;5060774;28;20043;-90
2021/08/05 12:54:28;;;;;;;4.57;2.40;;;24.30;99.90;;;;;;5081789;28;20032;-91